createdAt,value
2019-02-18T00:00:57.320Z,19.50
2019-02-18T00:01:57.309Z,18.50
2019-02-18T00:02:57.328Z,18.20
2019-02-18T00:03:57.292Z,18.00
2019-02-18T00:04:57.271Z,18.40
2019-02-18T00:05:57.260Z,19.20
2019-02-18T00:06:57.253Z,18.40
2019-02-18T00:07:57.244Z,19.30
2019-02-18T00:08:57.256Z,18.60
2019-02-18T00:09:57.219Z,19.10
2019-02-18T00:10:57.208Z,18.20
2019-02-18T00:11:57.198Z,19.50
2019-02-18T00:12:57.186Z,18.90
2019-02-18T00:13:57.193Z,17.70
2019-02-18T00:14:57.164Z,18.30
2019-02-18T00:15:57.146Z,19.00
2019-02-18T00:16:57.140Z,18.40
2019-02-18T00:17:57.136Z,19.90
2019-02-18T00:18:57.136Z,19.10
2019-02-18T00:19:57.110Z,19.50
2019-02-18T00:20:57.098Z,18.10
2019-02-18T00:21:57.085Z,19.50
2019-02-18T00:22:57.073Z,19.10
2019-02-18T00:23:57.074Z,18.80
2019-02-18T00:24:57.048Z,18.60
2019-02-18T00:25:57.031Z,19.20
2019-02-18T00:26:57.029Z,18.80
2019-02-18T00:27:57.016Z,19.20
2019-02-18T00:28:57.031Z,18.80
2019-02-18T00:29:56.985Z,19.00
2019-02-18T00:30:56.978Z,19.00
2019-02-18T00:31:56.968Z,18.70
2019-02-18T00:32:56.956Z,18.80
2019-02-18T00:33:56.983Z,18.70
2019-02-18T00:34:56.936Z,19.20
2019-02-18T00:35:56.924Z,18.20
2019-02-18T00:36:56.910Z,18.80
2019-02-18T00:37:56.897Z,18.20
2019-02-18T00:38:56.913Z,18.40
2019-02-18T00:39:56.878Z,19.10
2019-02-18T00:40:56.873Z,18.10
2019-02-18T00:41:56.858Z,18.90
2019-02-18T00:42:56.840Z,18.70
2019-02-18T00:43:56.862Z,18.70
2019-02-18T00:44:56.820Z,19.80
2019-02-18T00:45:56.810Z,19.10
2019-02-18T00:46:56.802Z,18.40
2019-02-18T00:47:56.802Z,18.60
2019-02-18T00:48:56.793Z,18.80
2019-02-18T00:49:56.764Z,19.00
2019-02-18T00:50:56.760Z,19.00
2019-02-18T00:51:56.743Z,18.90
2019-02-18T00:52:56.738Z,19.60
2019-02-18T00:53:56.750Z,19.30
2019-02-18T00:54:56.715Z,19.70
2019-02-18T00:55:56.699Z,18.80
2019-02-18T00:56:56.694Z,19.40
2019-02-18T00:57:56.681Z,19.80
2019-02-18T00:58:56.705Z,19.20
2019-02-18T00:59:56.655Z,19.00
2019-02-18T01:00:56.646Z,19.70
2019-02-18T01:01:56.636Z,18.60
2019-02-18T01:02:56.623Z,18.70
2019-02-18T01:03:56.616Z,18.60
2019-02-18T01:04:56.619Z,18.60
2019-02-18T01:05:56.585Z,19.50
2019-02-18T01:06:56.576Z,19.50
2019-02-18T01:07:56.569Z,18.70
2019-02-18T01:08:56.551Z,18.60
2019-02-18T01:09:56.566Z,19.50
2019-02-18T01:10:56.530Z,19.20
2019-02-18T01:11:56.519Z,19.90
2019-02-18T01:12:56.506Z,18.70
2019-02-18T01:13:56.499Z,19.40
2019-02-18T01:14:56.514Z,18.70
2019-02-18T01:15:56.475Z,18.80
2019-02-18T01:16:56.469Z,19.60
2019-02-18T01:17:56.460Z,19.20
2019-02-18T01:18:56.442Z,18.70
2019-02-18T01:19:56.445Z,19.00
2019-02-18T01:20:56.430Z,19.00
2019-02-18T01:21:56.404Z,19.90
2019-02-18T01:22:56.394Z,19.70
2019-02-18T01:23:56.389Z,20.30
2019-02-18T01:24:56.393Z,19.30
2019-02-18T01:25:56.428Z,19.00
2019-02-18T01:26:56.357Z,20.40
2019-02-18T01:27:56.342Z,19.50
2019-02-18T01:28:56.325Z,19.90
2019-02-18T01:29:56.331Z,18.70
2019-02-18T01:30:56.302Z,19.10
2019-02-18T01:31:56.307Z,19.70
2019-02-18T01:32:56.279Z,19.80
2019-02-18T01:33:56.277Z,19.60
2019-02-18T01:34:56.278Z,19.00
2019-02-18T01:35:56.254Z,19.30
2019-02-18T01:36:56.240Z,19.10
2019-02-18T01:37:56.238Z,19.00
2019-02-18T01:38:56.250Z,19.70
2019-02-18T01:39:56.225Z,18.80
2019-02-18T01:40:56.197Z,19.60
2019-02-18T01:41:56.177Z,19.30
2019-02-18T01:42:56.171Z,19.80
2019-02-18T01:43:56.154Z,19.20
2019-02-18T01:44:56.278Z,19.00
2019-02-18T01:45:56.134Z,19.50
2019-02-18T01:46:56.127Z,20.10
2019-02-18T01:47:56.110Z,18.90
2019-02-18T01:48:56.116Z,19.90
2019-02-18T01:49:56.091Z,19.80
2019-02-18T01:50:56.365Z,20.10
2019-02-18T01:51:56.071Z,20.20
2019-02-18T01:52:56.058Z,20.20
2019-02-18T01:53:56.043Z,19.20
2019-02-18T01:54:56.029Z,19.60
2019-02-18T01:55:56.369Z,19.50
2019-02-18T01:56:56.010Z,19.90
2019-02-18T01:57:55.999Z,20.30
2019-02-18T01:58:55.994Z,19.20
2019-02-18T01:59:55.982Z,19.40
2019-02-18T02:00:55.983Z,20.30
2019-02-18T02:01:55.961Z,19.20
2019-02-18T02:02:55.945Z,19.30
2019-02-18T02:03:55.936Z,20.10
2019-02-18T02:04:55.923Z,20.30
2019-02-18T02:05:55.927Z,19.90
2019-02-18T02:06:55.900Z,19.40
2019-02-18T02:07:56.790Z,19.70
2019-02-18T02:08:55.873Z,19.30
2019-02-18T02:09:55.870Z,20.60
2019-02-18T02:10:55.878Z,19.30
2019-02-18T02:11:55.844Z,20.20
2019-02-18T02:12:55.832Z,20.00
2019-02-18T02:13:55.817Z,19.10
2019-02-18T02:14:55.811Z,20.10
2019-02-18T02:15:55.809Z,19.10
2019-02-18T02:16:55.780Z,18.90
2019-02-18T02:17:55.785Z,19.60
2019-02-18T02:18:55.770Z,19.40
2019-02-18T02:19:55.750Z,19.40
2019-02-18T02:20:55.777Z,19.70
2019-02-18T02:21:55.732Z,19.50
2019-02-18T02:22:55.721Z,19.90
2019-02-18T02:23:55.722Z,19.80
2019-02-18T02:24:55.700Z,20.20
2019-02-18T02:25:55.689Z,19.60
2019-02-18T02:26:55.700Z,19.90
2019-02-18T02:27:55.660Z,19.50
2019-02-18T02:28:55.658Z,19.60
2019-02-18T02:29:55.642Z,20.50
2019-02-18T02:30:55.628Z,19.80
2019-02-18T02:31:55.643Z,20.10
2019-02-18T02:32:55.605Z,19.90
2019-02-18T02:33:55.598Z,19.20
2019-02-18T02:34:55.587Z,20.10
2019-02-18T02:35:55.573Z,20.00
2019-02-18T02:36:55.581Z,19.80
2019-02-18T02:38:06.982Z,19.90
2019-02-18T02:38:56.532Z,20.10
2019-02-18T02:39:55.540Z,20.00
2019-02-18T02:40:55.521Z,20.30
2019-02-18T02:41:55.519Z,20.30
2019-02-18T02:42:55.491Z,21.10
2019-02-18T02:43:55.481Z,19.90
2019-02-18T02:44:55.466Z,20.30
2019-02-18T02:45:55.452Z,20.60
2019-02-18T02:46:55.456Z,19.70
2019-02-18T02:47:55.430Z,20.40
2019-02-18T02:48:55.428Z,19.40
2019-02-18T02:49:55.408Z,20.90
2019-02-18T02:50:55.397Z,19.40
2019-02-18T02:51:55.405Z,20.30
2019-02-18T02:52:55.375Z,19.90
2019-02-18T02:53:55.368Z,20.40
2019-02-18T02:54:55.358Z,20.40
2019-02-18T02:55:55.344Z,20.10
2019-02-18T02:56:55.373Z,20.10
2019-02-18T02:57:55.321Z,21.00
2019-02-18T02:58:55.310Z,19.50
2019-02-18T02:59:55.298Z,19.90
2019-02-18T03:00:55.288Z,20.00
2019-02-18T03:01:55.273Z,19.80
2019-02-18T03:02:55.292Z,20.20
2019-02-18T03:03:55.259Z,20.10
2019-02-18T03:04:55.250Z,19.40
2019-02-18T03:05:55.259Z,20.00
2019-02-18T03:06:55.216Z,19.80
2019-02-18T03:07:55.227Z,20.70
2019-02-18T03:08:55.198Z,19.60
2019-02-18T03:09:55.189Z,20.80
2019-02-18T03:10:55.188Z,20.60
2019-02-18T03:11:55.160Z,20.60
2019-02-18T03:12:55.179Z,19.70
2019-02-18T03:13:55.138Z,20.60
2019-02-18T03:14:55.128Z,20.40
2019-02-18T03:15:55.133Z,19.90
2019-02-18T03:16:55.105Z,19.90
2019-02-18T03:17:55.121Z,19.70
2019-02-18T03:18:55.089Z,20.00
2019-02-18T03:19:55.073Z,19.80
2019-02-18T03:20:55.056Z,21.10
2019-02-18T03:21:55.053Z,21.00
2019-02-18T03:22:55.072Z,20.80
2019-02-18T03:23:55.037Z,22.70
2019-02-18T03:24:55.019Z,21.60
2019-02-18T03:25:55.007Z,22.20
2019-02-18T03:26:54.998Z,21.50
2019-02-18T03:27:55.006Z,20.30
2019-02-18T03:28:54.969Z,22.80
2019-02-18T03:29:54.957Z,21.80
2019-02-18T03:30:54.953Z,22.00
2019-02-18T03:31:54.942Z,21.00
2019-02-18T03:32:54.950Z,21.20
2019-02-18T03:33:54.908Z,22.00
2019-02-18T03:34:54.901Z,21.70
2019-02-18T03:35:54.889Z,21.20
2019-02-18T03:36:54.883Z,21.60
2019-02-18T03:37:54.905Z,21.20
2019-02-18T03:38:54.855Z,21.90
2019-02-18T03:39:54.848Z,21.40
2019-02-18T03:41:02.717Z,21.20
2019-02-18T03:41:55.815Z,26.30
2019-02-18T03:42:54.810Z,23.20
2019-02-18T03:43:54.821Z,21.30
2019-02-18T03:44:54.781Z,20.40
2019-02-18T03:45:54.778Z,21.10
2019-02-18T03:46:54.764Z,20.30
2019-02-18T03:47:54.759Z,21.00
2019-02-18T03:48:54.777Z,20.70
2019-02-18T03:49:54.731Z,19.90
2019-02-18T03:50:54.713Z,20.60
2019-02-18T03:51:54.705Z,21.00
2019-02-18T03:52:54.697Z,20.50
2019-02-18T03:53:54.707Z,21.10
2019-02-18T03:54:54.675Z,20.30
2019-02-18T03:55:54.659Z,20.40
2019-02-18T03:56:54.644Z,20.70
2019-02-18T03:57:54.634Z,20.50
2019-02-18T03:58:54.639Z,20.60
2019-02-18T03:59:54.617Z,20.60
2019-02-18T04:00:54.601Z,21.20
2019-02-18T04:01:54.589Z,20.60
2019-02-18T04:02:54.580Z,20.80
2019-02-18T04:03:54.588Z,20.40
2019-02-18T04:04:54.555Z,20.60
2019-02-18T04:05:54.544Z,20.40
2019-02-18T04:06:54.534Z,20.50
2019-02-18T04:07:54.522Z,21.20
2019-02-18T04:08:54.529Z,20.80
2019-02-18T04:09:54.495Z,20.40
2019-02-18T04:10:54.485Z,20.30
2019-02-18T04:11:54.473Z,20.40
2019-02-18T04:12:54.457Z,20.40
2019-02-18T04:13:54.481Z,19.90
2019-02-18T04:14:54.443Z,21.00
2019-02-18T04:15:54.455Z,21.00
2019-02-18T04:16:54.427Z,20.70
2019-02-18T04:17:54.409Z,21.20
2019-02-18T04:18:54.413Z,21.30
2019-02-18T04:19:54.388Z,21.30
2019-02-18T04:20:54.375Z,21.00
2019-02-18T04:21:54.360Z,20.90
2019-02-18T04:22:54.352Z,21.30
2019-02-18T04:23:54.375Z,21.80
2019-02-18T04:24:54.331Z,20.90
2019-02-18T04:25:54.320Z,21.40
2019-02-18T04:26:54.316Z,19.90
2019-02-18T04:27:54.304Z,21.00
2019-02-18T04:28:54.279Z,21.10
2019-02-18T04:29:54.304Z,21.90
2019-02-18T04:30:54.263Z,20.40
2019-02-18T04:31:54.246Z,22.00
2019-02-18T04:32:54.250Z,21.90
2019-02-18T04:33:54.237Z,20.80
2019-02-18T04:34:54.234Z,21.00
2019-02-18T04:35:54.199Z,21.70
2019-02-18T04:36:54.192Z,20.90
2019-02-18T04:37:54.193Z,20.70
2019-02-18T04:38:54.528Z,20.10
2019-02-18T04:39:54.176Z,21.40
2019-02-18T04:40:54.149Z,20.00
2019-02-18T04:41:54.134Z,20.60
2019-02-18T04:42:54.131Z,20.80
2019-02-18T04:43:54.114Z,21.30
2019-02-18T04:44:54.136Z,21.50
2019-02-18T04:45:54.082Z,22.20
2019-02-18T04:46:54.072Z,21.50
2019-02-18T04:47:54.071Z,21.20
2019-02-18T04:48:54.048Z,21.40
2019-02-18T04:49:54.065Z,21.40
2019-02-18T04:50:54.262Z,21.90
2019-02-18T04:51:54.021Z,21.80
2019-02-18T04:52:54.013Z,21.60
2019-02-18T04:53:54.012Z,22.30
2019-02-18T04:54:53.998Z,22.20
2019-02-18T04:55:53.972Z,22.50
2019-02-18T04:56:53.959Z,21.40
2019-02-18T04:57:53.947Z,21.60
2019-02-18T04:58:53.937Z,21.50
2019-02-18T04:59:53.955Z,22.00
2019-02-18T05:00:53.926Z,21.10
2019-02-18T05:01:53.909Z,21.40
2019-02-18T05:02:53.900Z,21.90
2019-02-18T05:03:53.901Z,22.00
2019-02-18T05:04:53.904Z,21.40
2019-02-18T05:05:53.875Z,20.60
2019-02-18T05:06:53.850Z,18.80
2019-02-18T05:07:53.880Z,19.10
2019-02-18T05:09:04.810Z,21.50
2019-02-18T05:09:54.853Z,20.80
2019-02-18T05:10:53.811Z,20.50
2019-02-18T05:11:53.794Z,21.40
2019-02-18T05:12:53.778Z,21.00
2019-02-18T05:13:53.781Z,20.80
2019-02-18T05:14:53.754Z,21.40
2019-02-18T05:15:53.769Z,21.40
2019-02-18T05:16:53.736Z,21.60
2019-02-18T05:17:53.749Z,21.00
2019-02-18T05:18:53.719Z,20.80
2019-02-18T05:19:53.703Z,21.20
2019-02-18T05:20:53.725Z,21.20
2019-02-18T05:21:53.677Z,22.00
2019-02-18T05:22:53.669Z,21.00
2019-02-18T05:23:53.673Z,21.50
2019-02-18T05:24:53.640Z,22.20
2019-02-18T05:25:53.654Z,21.80
2019-02-18T05:26:53.615Z,22.40
2019-02-18T05:27:53.620Z,21.50
2019-02-18T05:28:53.596Z,21.80
2019-02-18T05:29:53.594Z,21.60
2019-02-18T05:30:53.591Z,21.30
2019-02-18T05:31:53.565Z,22.10
2019-02-18T05:32:53.561Z,21.90
2019-02-18T05:33:53.559Z,21.80
2019-02-18T05:34:53.525Z,22.10
2019-02-18T05:35:55.852Z,22.50
2019-02-18T05:36:53.508Z,21.30
2019-02-18T05:37:53.498Z,21.20
2019-02-18T05:38:53.498Z,22.20
2019-02-18T05:39:55.390Z,21.50
2019-02-18T05:40:53.483Z,21.50
2019-02-18T05:41:53.449Z,21.60
2019-02-18T05:42:53.452Z,21.90
2019-02-18T05:43:53.431Z,21.80
2019-02-18T05:44:53.412Z,22.20
2019-02-18T05:45:53.450Z,21.70
2019-02-18T05:46:53.389Z,21.60
2019-02-18T05:47:53.388Z,21.80
2019-02-18T05:48:53.375Z,21.00
2019-02-18T05:49:53.359Z,22.10
2019-02-18T05:50:53.396Z,21.80
2019-02-18T05:51:53.343Z,22.70
2019-02-18T05:52:53.335Z,22.40
2019-02-18T05:53:53.317Z,21.90
2019-02-18T05:54:53.308Z,22.30
2019-02-18T05:55:53.295Z,23.30
2019-02-18T05:56:53.303Z,22.10
2019-02-18T05:57:53.275Z,22.30
2019-02-18T05:58:53.287Z,21.90
2019-02-18T05:59:53.257Z,21.90
2019-02-18T06:00:53.231Z,22.70
2019-02-18T06:01:53.272Z,22.50
2019-02-18T06:02:53.267Z,22.50
2019-02-18T06:03:53.202Z,22.80
2019-02-18T06:04:53.209Z,22.10
2019-02-18T06:05:53.191Z,22.30
2019-02-18T06:06:53.182Z,21.30
2019-02-18T06:07:53.177Z,21.60
2019-02-18T06:08:53.152Z,22.90
2019-02-18T06:09:53.135Z,22.70
2019-02-18T06:10:53.452Z,23.10
2019-02-18T06:11:53.131Z,22.50
2019-02-18T06:12:53.097Z,23.20
2019-02-18T06:13:53.135Z,24.60
2019-02-18T06:14:53.072Z,22.90
2019-02-18T06:15:53.067Z,22.80
2019-02-18T06:16:53.129Z,23.40
2019-02-18T06:17:53.065Z,22.60
2019-02-18T06:18:53.088Z,23.90
2019-02-18T06:19:53.027Z,22.30
2019-02-18T06:20:53.007Z,22.80
2019-02-18T06:21:53.026Z,23.20
2019-02-18T06:22:53.056Z,22.70
2019-02-18T06:23:52.980Z,21.70
2019-02-18T06:24:52.971Z,21.70
2019-02-18T06:25:52.961Z,22.90
2019-02-18T06:26:52.954Z,23.10
2019-02-18T06:27:52.951Z,22.10
2019-02-18T06:28:52.918Z,23.10
2019-02-18T06:29:52.906Z,22.00
2019-02-18T06:30:54.917Z,22.30
2019-02-18T06:31:52.892Z,22.50
2019-02-18T06:32:52.903Z,22.90
2019-02-18T06:33:52.908Z,22.00
2019-02-18T06:34:52.857Z,22.60
2019-02-18T06:35:52.859Z,22.80
2019-02-18T06:36:52.836Z,23.00
2019-02-18T06:37:52.840Z,22.40
2019-02-18T06:38:52.814Z,22.20
2019-02-18T06:39:52.820Z,21.50
2019-02-18T06:40:52.788Z,21.70
2019-02-18T06:41:52.780Z,22.20
2019-02-18T06:42:52.795Z,22.10
2019-02-18T06:43:52.781Z,21.80
2019-02-18T06:44:52.741Z,21.40
2019-02-18T06:45:52.807Z,21.50
2019-02-18T06:46:52.720Z,22.90
2019-02-18T06:47:52.733Z,22.80
2019-02-18T06:48:52.707Z,22.30
2019-02-18T06:49:52.685Z,23.40
2019-02-18T06:50:52.928Z,23.90
2019-02-18T06:51:52.662Z,22.20
2019-02-18T06:52:52.668Z,23.30
2019-02-18T06:53:52.650Z,23.10
2019-02-18T06:54:52.662Z,22.30
2019-02-18T06:55:52.621Z,22.10
2019-02-18T06:56:52.617Z,23.40
2019-02-18T06:57:52.616Z,22.00
2019-02-18T06:58:52.585Z,21.60
2019-02-18T06:59:52.575Z,21.80
2019-02-18T07:00:52.564Z,22.70
2019-02-18T07:01:52.559Z,22.20
2019-02-18T07:02:52.592Z,21.80
2019-02-18T07:03:52.540Z,22.00
2019-02-18T07:04:52.528Z,21.40
2019-02-18T07:05:52.516Z,22.30
2019-02-18T07:06:52.492Z,22.00
2019-02-18T07:07:52.497Z,22.00
2019-02-18T07:08:52.472Z,22.60
2019-02-18T07:09:52.492Z,23.20
2019-02-18T07:10:52.451Z,23.40
2019-02-18T07:11:52.455Z,23.40
2019-02-18T07:12:52.460Z,22.30
2019-02-18T07:13:52.412Z,23.50
2019-02-18T07:14:52.423Z,23.70
2019-02-18T07:15:52.388Z,22.80
2019-02-18T07:16:52.394Z,23.30
2019-02-18T07:17:52.412Z,24.30
2019-02-18T07:18:52.360Z,23.60
2019-02-18T07:19:52.378Z,21.50
2019-02-18T07:20:52.374Z,21.70
2019-02-18T07:21:52.326Z,22.20
2019-02-18T07:22:52.338Z,22.00
2019-02-18T07:23:52.459Z,20.40
2019-02-18T07:24:52.311Z,21.70
2019-02-18T07:25:52.280Z,22.20
2019-02-18T07:26:52.290Z,21.80
2019-02-18T07:27:52.290Z,21.80
2019-02-18T07:28:52.244Z,21.70
2019-02-18T07:29:52.234Z,20.90
2019-02-18T07:30:52.223Z,22.60
2019-02-18T07:31:52.222Z,22.00
2019-02-18T07:32:52.295Z,22.20
2019-02-18T07:33:52.300Z,22.10
2019-02-18T07:34:52.194Z,22.30
2019-02-18T07:35:52.191Z,22.80
2019-02-18T07:36:52.146Z,22.80
2019-02-18T07:37:52.268Z,23.30
2019-02-18T07:38:52.139Z,22.40
2019-02-18T07:40:01.141Z,22.10
2019-02-18T07:40:53.128Z,22.70
2019-02-18T07:41:52.095Z,22.30
2019-02-18T07:42:52.078Z,22.80
2019-02-18T07:43:52.123Z,22.50
2019-02-18T07:44:52.059Z,21.70
2019-02-18T07:45:52.221Z,22.30
2019-02-18T07:46:52.054Z,22.90
2019-02-18T07:47:52.067Z,22.30
2019-02-18T07:48:52.076Z,22.80
2019-02-18T07:49:52.002Z,22.50
2019-02-18T07:50:51.999Z,22.10
2019-02-18T07:51:51.990Z,21.90
2019-02-18T07:52:52.003Z,22.50
2019-02-18T07:53:51.972Z,22.80
2019-02-18T07:54:51.946Z,22.30
2019-02-18T07:55:51.943Z,22.50
2019-02-18T07:56:51.930Z,22.30
2019-02-18T07:57:51.925Z,23.00
2019-02-18T07:58:51.915Z,22.20
2019-02-18T07:59:51.887Z,21.90
2019-02-18T08:00:51.882Z,22.70
2019-02-18T08:01:51.864Z,22.60
2019-02-18T08:02:51.865Z,23.70
2019-02-18T08:03:51.860Z,24.30
2019-02-18T08:04:51.843Z,23.60
2019-02-18T08:05:51.824Z,22.80
2019-02-18T08:06:51.808Z,21.20
2019-02-18T08:07:51.930Z,22.10
2019-02-18T08:08:51.819Z,22.60
2019-02-18T08:09:51.809Z,21.10
2019-02-18T08:10:51.767Z,22.10
2019-02-18T08:11:51.750Z,21.60
2019-02-18T08:12:51.775Z,22.30
2019-02-18T08:13:51.763Z,21.70
2019-02-18T08:14:51.755Z,21.70
2019-02-18T08:15:51.706Z,22.10
2019-02-18T08:16:51.699Z,22.00
2019-02-18T08:17:51.685Z,21.40
2019-02-18T08:18:51.674Z,21.80
2019-02-18T08:19:51.841Z,22.80
2019-02-18T08:20:51.649Z,22.10
2019-02-18T08:21:51.633Z,22.10
2019-02-18T08:22:51.628Z,21.70
2019-02-18T08:23:59.623Z,22.10
2019-02-18T08:24:52.620Z,21.00
2019-02-18T08:25:51.593Z,21.00
2019-02-18T08:26:51.580Z,21.20
2019-02-18T08:27:51.562Z,21.20
2019-02-18T08:28:51.555Z,21.40
2019-02-18T08:29:51.564Z,21.90
2019-02-18T08:30:51.537Z,21.90
2019-02-18T08:31:51.522Z,21.20
2019-02-18T08:32:51.542Z,21.70
2019-02-18T08:33:51.526Z,20.90
2019-02-18T08:34:51.522Z,21.10
2019-02-18T08:35:51.479Z,21.80
2019-02-18T08:36:51.467Z,21.50
2019-02-18T08:37:51.464Z,20.90
2019-02-18T08:38:51.450Z,20.90
2019-02-18T08:39:51.463Z,20.70
2019-02-18T08:40:51.426Z,20.70
2019-02-18T08:41:51.438Z,20.70
2019-02-18T08:42:51.404Z,22.60
2019-02-18T08:43:51.393Z,21.40
2019-02-18T08:44:51.393Z,20.80
2019-02-18T08:45:51.399Z,21.20
2019-02-18T08:46:51.351Z,21.10
2019-02-18T08:47:51.344Z,20.50
2019-02-18T08:48:51.332Z,22.00
2019-02-18T08:49:51.351Z,20.90
2019-02-18T08:50:51.341Z,21.60
2019-02-18T08:51:51.301Z,20.70
2019-02-18T08:52:51.282Z,21.50
2019-02-18T08:53:51.272Z,22.00
2019-02-18T08:54:56.650Z,20.90
2019-02-18T08:55:52.293Z,20.00
2019-02-18T08:56:51.238Z,21.20
2019-02-18T08:57:51.250Z,20.80
2019-02-18T08:58:51.214Z,20.10
2019-02-18T08:59:51.211Z,22.00
2019-02-18T09:00:51.217Z,20.80
2019-02-18T09:01:51.185Z,21.40
2019-02-18T09:02:51.173Z,20.90
2019-02-18T09:03:51.164Z,21.00
2019-02-18T09:04:51.151Z,20.50
2019-02-18T09:05:51.166Z,20.80
2019-02-18T09:06:51.122Z,21.30
2019-02-18T09:07:51.114Z,20.60
2019-02-18T09:08:51.104Z,21.40
2019-02-18T09:09:51.380Z,20.60
2019-02-18T09:10:51.104Z,21.30
2019-02-18T09:11:51.083Z,21.30
2019-02-18T09:12:51.073Z,20.80
2019-02-18T09:13:51.053Z,21.00
2019-02-18T09:14:51.033Z,21.00
2019-02-18T09:15:59.720Z,20.70
2019-02-18T09:16:52.026Z,21.10
2019-02-18T09:17:51.000Z,20.90
2019-02-18T09:18:50.994Z,21.20
2019-02-18T09:19:50.987Z,20.70
2019-02-18T09:20:51.004Z,20.20
2019-02-18T09:21:50.965Z,20.80
2019-02-18T09:22:50.979Z,19.90
2019-02-18T09:23:50.939Z,19.90
2019-02-18T09:24:50.923Z,20.00
2019-02-18T09:25:50.944Z,20.30
2019-02-18T09:26:50.905Z,20.00
2019-02-18T09:27:50.896Z,20.40
2019-02-18T09:28:50.906Z,20.10
2019-02-18T09:29:50.870Z,20.30
2019-02-18T09:30:50.882Z,20.40
2019-02-18T09:31:50.935Z,20.00
2019-02-18T09:32:50.839Z,19.50
2019-02-18T09:33:50.822Z,19.90
2019-02-18T09:34:53.258Z,19.60
2019-02-18T09:35:50.824Z,19.60
2019-02-18T09:36:50.794Z,20.10
2019-02-18T09:37:50.777Z,19.60
2019-02-18T09:38:50.790Z,20.10
2019-02-18T09:39:50.777Z,19.00
2019-02-18T09:40:51.689Z,20.10
2019-02-18T09:41:50.868Z,20.40
2019-02-18T09:42:50.730Z,20.30
2019-02-18T09:43:50.713Z,20.10
2019-02-18T09:44:50.720Z,19.80
2019-02-18T09:45:50.717Z,19.60
2019-02-18T09:46:50.721Z,19.30
2019-02-18T09:47:50.671Z,19.10
2019-02-18T09:48:50.652Z,19.40
2019-02-18T09:49:50.663Z,18.90
2019-02-18T09:50:50.666Z,19.10
2019-02-18T09:51:50.620Z,19.20
2019-02-18T09:52:50.618Z,18.90
2019-02-18T09:53:50.597Z,19.30
2019-02-18T09:54:50.597Z,19.80
2019-02-18T09:55:50.593Z,20.60
2019-02-18T09:56:50.584Z,19.40
2019-02-18T09:57:50.664Z,19.80
2019-02-18T09:58:50.546Z,19.40
2019-02-18T09:59:50.542Z,19.40
2019-02-18T10:00:50.523Z,20.00
2019-02-18T10:01:50.528Z,19.50
2019-02-18T10:02:50.505Z,19.70
2019-02-18T10:03:50.483Z,20.10
2019-02-18T10:04:50.472Z,20.20
2019-02-18T10:05:50.468Z,19.80
2019-02-18T10:06:50.481Z,19.30
2019-02-18T10:07:50.456Z,19.20
2019-02-18T10:08:50.430Z,19.60
2019-02-18T10:09:50.477Z,18.70
2019-02-18T10:10:55.964Z,18.80
2019-02-18T10:11:51.423Z,19.40
2019-02-18T10:12:50.397Z,19.90
2019-02-18T10:13:50.368Z,19.30
2019-02-18T10:14:50.363Z,20.10
2019-02-18T10:15:50.347Z,19.90
2019-02-18T10:16:50.358Z,19.00
2019-02-18T10:17:50.324Z,19.20
2019-02-18T10:18:50.316Z,20.10
2019-02-18T10:19:50.308Z,20.70
2019-02-18T10:20:50.308Z,20.10
2019-02-18T10:21:50.307Z,20.50
2019-02-18T10:22:50.265Z,20.00
2019-02-18T10:23:50.256Z,20.30
2019-02-18T10:25:51.245Z,19.90
2019-02-18T10:26:50.247Z,19.50
2019-02-18T10:27:50.215Z,19.90
2019-02-18T10:28:50.203Z,20.10
2019-02-18T10:29:50.191Z,19.30
2019-02-18T10:30:50.182Z,19.50
2019-02-18T10:31:50.187Z,19.60
2019-02-18T10:32:50.187Z,19.40
2019-02-18T10:33:50.147Z,20.40
2019-02-18T10:34:50.134Z,19.40
2019-02-18T10:35:50.124Z,19.50
2019-02-18T10:36:50.143Z,19.40
2019-02-18T10:37:54.969Z,20.00
2019-02-18T10:38:51.090Z,19.80
2019-02-18T10:39:50.074Z,19.40
2019-02-18T10:40:50.064Z,20.30
2019-02-18T10:41:50.074Z,20.40
2019-02-18T10:42:50.038Z,20.60
2019-02-18T10:43:50.044Z,20.10
2019-02-18T10:44:50.028Z,20.30
2019-02-18T10:45:50.013Z,19.90
2019-02-18T10:46:50.048Z,20.10
2019-02-18T10:47:49.993Z,20.70
2019-02-18T10:48:49.975Z,21.40
2019-02-18T10:49:49.983Z,20.30
2019-02-18T10:50:49.952Z,19.40
2019-02-18T10:51:50.052Z,21.10
2019-02-18T10:52:49.930Z,21.00
2019-02-18T10:53:49.945Z,20.10
2019-02-18T10:54:49.913Z,20.00
2019-02-18T10:55:49.898Z,20.30
2019-02-18T10:56:49.908Z,19.80
2019-02-18T10:57:49.879Z,22.40
2019-02-18T10:58:49.873Z,21.10
2019-02-18T10:59:49.855Z,21.90
2019-02-18T11:00:49.845Z,21.20
2019-02-18T11:01:49.864Z,19.80
2019-02-18T11:02:49.883Z,21.30
2019-02-18T11:03:49.826Z,21.00
2019-02-18T11:04:49.806Z,19.80
2019-02-18T11:05:49.791Z,20.10
2019-02-18T11:06:49.813Z,19.80
2019-02-18T11:07:49.772Z,19.80
2019-02-18T11:08:49.761Z,18.90
2019-02-18T11:09:49.740Z,19.40
2019-02-18T11:10:49.758Z,18.70
2019-02-18T11:11:49.734Z,19.20
2019-02-18T11:12:49.707Z,19.60
2019-02-18T11:13:49.705Z,19.30
2019-02-18T11:14:49.687Z,19.70
2019-02-18T11:15:49.669Z,18.90
2019-02-18T11:16:49.683Z,18.70
2019-02-18T11:17:49.652Z,19.60
2019-02-18T11:18:49.639Z,20.00
2019-02-18T11:19:49.630Z,18.40
2019-02-18T11:20:49.620Z,19.80
2019-02-18T11:21:49.637Z,19.30
2019-02-18T11:22:49.606Z,18.70
2019-02-18T11:23:49.581Z,18.80
2019-02-18T11:24:49.579Z,18.90
2019-02-18T11:25:49.558Z,20.10
2019-02-18T11:26:49.569Z,19.90
2019-02-18T11:27:49.538Z,19.70
2019-02-18T11:28:49.524Z,19.40
2019-02-18T11:29:49.515Z,20.10
2019-02-18T11:30:49.501Z,20.10
2019-02-18T11:31:49.587Z,18.70
2019-02-18T11:32:49.477Z,19.80
2019-02-18T11:33:49.481Z,19.00
2019-02-18T11:34:49.463Z,19.30
2019-02-18T11:35:49.446Z,18.40
2019-02-18T11:36:49.464Z,19.30
2019-02-18T11:37:49.424Z,19.00
2019-02-18T11:38:49.412Z,18.00
2019-02-18T11:39:49.403Z,18.50
2019-02-18T11:40:49.386Z,19.10
2019-02-18T11:41:49.392Z,18.80
2019-02-18T11:42:49.365Z,19.80
2019-02-18T11:43:49.343Z,20.00
2019-02-18T11:44:49.347Z,20.50
2019-02-18T11:45:49.325Z,20.10
2019-02-18T11:46:49.327Z,21.30
2019-02-18T11:47:49.310Z,19.60
2019-02-18T11:48:49.291Z,18.60
2019-02-18T11:49:49.278Z,19.00
2019-02-18T11:50:49.272Z,18.30
2019-02-18T11:51:49.277Z,19.60
2019-02-18T11:52:49.251Z,19.20
2019-02-18T11:53:49.264Z,18.60
2019-02-18T11:54:49.223Z,19.00
2019-02-18T11:55:49.222Z,18.50
2019-02-18T11:56:49.217Z,18.70
2019-02-18T11:57:49.197Z,18.30
2019-02-18T11:58:49.180Z,18.50
2019-02-18T11:59:49.174Z,18.50
2019-02-18T12:00:49.155Z,19.00
2019-02-18T12:01:49.182Z,19.30
2019-02-18T12:02:49.136Z,19.60
2019-02-18T12:03:49.124Z,18.40
2019-02-18T12:04:49.113Z,19.20
2019-02-18T12:05:49.111Z,19.00
2019-02-18T12:06:49.101Z,19.20
2019-02-18T12:07:49.074Z,19.00
2019-02-18T12:08:49.070Z,19.00
2019-02-18T12:09:49.051Z,18.30
2019-02-18T12:10:49.035Z,18.50
2019-02-18T12:11:49.046Z,18.70
2019-02-18T12:12:49.015Z,18.50
2019-02-18T12:13:48.999Z,18.30
2019-02-18T12:14:48.993Z,17.40
2019-02-18T12:15:48.987Z,17.80
2019-02-18T12:16:48.996Z,16.70
2019-02-18T12:17:48.989Z,17.20
2019-02-18T12:18:48.944Z,18.00
2019-02-18T12:19:48.944Z,18.90
2019-02-18T12:20:48.920Z,17.60
2019-02-18T12:21:48.915Z,18.00
2019-02-18T12:22:48.917Z,17.80
2019-02-18T12:23:48.886Z,17.60
2019-02-18T12:24:48.873Z,17.90
2019-02-18T12:25:48.860Z,16.90
2019-02-18T12:26:48.905Z,17.70
2019-02-18T12:27:48.869Z,16.40
2019-02-18T12:28:48.825Z,16.90
2019-02-18T12:29:48.826Z,17.50
2019-02-18T12:30:48.808Z,16.60
2019-02-18T12:31:48.797Z,17.00
2019-02-18T12:32:48.808Z,16.90
2019-02-18T12:33:48.771Z,16.90
2019-02-18T12:34:48.766Z,16.80
2019-02-18T12:35:48.747Z,16.50
2019-02-18T12:36:48.734Z,16.80
2019-02-18T12:37:55.240Z,16.70
2019-02-18T12:38:49.715Z,18.40
2019-02-18T12:39:48.711Z,18.30
2019-02-18T12:40:48.697Z,18.30
2019-02-18T12:41:49.181Z,17.70
2019-02-18T12:42:48.684Z,17.90
2019-02-18T12:43:48.698Z,17.60
2019-02-18T12:44:48.643Z,17.70
2019-02-18T12:45:48.636Z,17.00
2019-02-18T12:46:48.622Z,17.10
2019-02-18T12:47:48.629Z,18.30
2019-02-18T12:48:48.603Z,17.90
2019-02-18T12:49:50.919Z,17.40
2019-02-18T12:50:48.577Z,15.50
2019-02-18T12:51:48.573Z,17.40
2019-02-18T12:52:48.574Z,16.80
2019-02-18T12:53:48.633Z,17.50